Time;durP1;ratioP1;P1;durP2;ratioP2;P2;SDS_P1;SDS_P2;PMS_P1;PMS_P2;Temp;Humidity;BMP_temperature;BMP_pressure;BME280_temperature;BME280_humidity;BME280_pressure;Samples;Min_cycle;Max_cycle;Signal;HPM_P1;HPM_P2
2021/04/12 00:00:48;;;;;;;;;;;23.30;41.70;;;;;;1545926;76;826;-58
2021/04/12 00:02:51;;;;;;;;;;;23.40;41.70;;;;;;1548824;76;808;-58
2021/04/12 00:05:01;;;;;;;;;;;23.40;41.70;;;;;;1546324;76;737;-59
2021/04/12 00:07:04;;;;;;;;;;;23.40;41.70;;;;;;1547755;76;1970;-59
2021/04/12 00:09:07;;;;;;;;;;;23.40;41.70;;;;;;1542242;76;1173;-60
2021/04/12 00:11:10;;;;;;;;;;;23.30;41.80;;;;;;1546058;76;1924;-59
2021/04/12 00:13:14;;;;;;;;;;;23.30;41.80;;;;;;1544480;76;923;-56
2021/04/12 00:15:18;;;;;;;;;;;23.40;41.80;;;;;;1542520;76;1826;-60
2021/04/12 00:17:24;;;;;;;;;;;23.40;41.90;;;;;;1544930;76;707;-60
2021/04/12 00:19:27;;;;;;;;;;;23.40;41.80;;;;;;1521037;76;1162;-60
2021/04/12 00:21:39;;;;;;;;;;;23.40;41.90;;;;;;1549158;76;784;-60
2021/04/12 00:23:45;;;;;;;;;;;23.40;41.80;;;;;;1540391;76;1353;-58
2021/04/12 00:25:48;;;;;;;;;;;23.40;41.80;;;;;;1546040;76;796;-59
2021/04/12 00:27:51;;;;;;;;;;;23.40;41.90;;;;;;1548260;76;1052;-58
2021/04/12 00:29:55;;;;;;;;;;;23.30;41.80;;;;;;1547550;76;1096;-57
2021/04/12 00:31:58;;;;;;;;;;;23.40;41.90;;;;;;1541978;76;1924;-60
2021/04/12 00:34:02;;;;;;;;;;;23.40;41.90;;;;;;1546942;76;757;-59
2021/04/12 00:36:05;;;;;;;;;;;23.40;41.90;;;;;;1545950;76;1639;-58
2021/04/12 00:38:14;;;;;;;;;;;23.40;42.00;;;;;;1538223;76;798;-55
2021/04/12 00:40:24;;;;;;;;;;;23.20;41.80;;;;;;1544249;76;1934;-58
2021/04/12 00:42:36;;;;;;;;;;;23.40;42.00;;;;;;1541013;76;802;-60
2021/04/12 00:44:58;;;;;;;;;;;23.30;42.10;;;;;;1549327;76;1710;-58
2021/04/12 00:47:01;;;;;;;;;;;23.40;42.10;;;;;;1541343;76;727;-56
2021/04/12 00:49:20;;;;;;;;;;;23.30;42.10;;;;;;1541451;76;1171;-57
2021/04/12 00:51:42;;;;;;;;;;;23.30;42.10;;;;;;1550140;76;1947;-58
2021/04/12 00:53:49;;;;;;;;;;;23.30;42.00;;;;;;1546926;76;992;-59
2021/04/12 00:55:58;;;;;;;;;;;23.30;42.30;;;;;;1552468;76;741;-60
2021/04/12 00:58:18;;;;;;;;;;;23.40;42.40;;;;;;1547715;76;684;-58
2021/04/12 01:00:21;;;;;;;;;;;23.40;42.30;;;;;;1542097;76;665;-58
2021/04/12 01:02:31;;;;;;;;;;;23.40;42.30;;;;;;1545248;76;1924;-56
2021/04/12 01:04:37;;;;;;;;;;;23.30;42.30;;;;;;1539514;76;786;-61
2021/04/12 01:06:49;;;;;;;;;;;23.40;42.30;;;;;;1489520;76;1217;-60
2021/04/12 01:09:05;;;;;;;;;;;23.40;42.20;;;;;;1543546;76;1130;-59
2021/04/12 01:11:20;;;;;;;;;;;23.40;42.20;;;;;;1542307;76;1949;-60
2021/04/12 01:13:33;;;;;;;;;;;23.40;42.20;;;;;;1545143;76;1883;-59
2021/04/12 01:15:48;;;;;;;;;;;23.40;42.10;;;;;;1549525;76;1707;-58
2021/04/12 01:18:08;;;;;;;;;;;23.40;42.20;;;;;;1536014;76;731;-57
2021/04/12 01:20:28;;;;;;;;;;;23.30;42.10;;;;;;1548289;76;1154;-57
2021/04/12 01:22:34;;;;;;;;;;;23.40;42.10;;;;;;1538033;76;758;-61
2021/04/12 01:24:44;;;;;;;;;;;23.30;42.10;;;;;;1542278;76;772;-58
2021/04/12 01:26:56;;;;;;;;;;;23.30;42.20;;;;;;1544178;76;743;-58
2021/04/12 01:29:00;;;;;;;;;;;23.30;42.10;;;;;;1537373;76;1886;-61
2021/04/12 01:31:06;;;;;;;;;;;23.30;42.10;;;;;;1544156;76;1957;-59
2021/04/12 01:33:16;;;;;;;;;;;23.30;42.10;;;;;;1549772;76;738;-59
2021/04/12 01:35:19;;;;;;;;;;;23.30;42.10;;;;;;1544042;76;704;-57
2021/04/12 01:37:22;;;;;;;;;;;23.30;42.10;;;;;;1537715;76;1629;-60
2021/04/12 01:39:32;;;;;;;;;;;23.30;42.20;;;;;;1545902;76;1960;-59
2021/04/12 01:41:34;;;;;;;;;;;23.30;42.10;;;;;;1542440;76;727;-57
2021/04/12 01:43:53;;;;;;;;;;;23.30;42.10;;;;;;1538698;76;802;-59
2021/04/12 01:46:05;;;;;;;;;;;23.30;42.10;;;;;;1541863;76;820;-58
2021/04/12 01:48:14;;;;;;;;;;;23.40;42.30;;;;;;1505488;77;797;-60
2021/04/12 01:50:20;;;;;;;;;;;23.30;42.30;;;;;;1535568;76;1877;-56
2021/04/12 01:52:24;;;;;;;;;;;23.30;42.30;;;;;;1546712;76;2085;-58
2021/04/12 01:54:42;;;;;;;;;;;23.30;42.20;;;;;;1534999;76;771;-60
2021/04/12 01:56:46;;;;;;;;;;;23.30;42.30;;;;;;1544216;76;756;-59
2021/04/12 01:59:06;;;;;;;;;;;23.30;42.30;;;;;;1535938;76;1153;-61
2021/04/12 02:01:09;;;;;;;;;;;23.30;42.30;;;;;;1548546;76;691;-59
2021/04/12 02:03:19;;;;;;;;;;;23.30;42.50;;;;;;1541655;76;781;-57
2021/04/12 02:05:37;;;;;;;;;;;23.20;42.30;;;;;;1540281;76;787;-60
2021/04/12 02:07:41;;;;;;;;;;;23.30;42.50;;;;;;1541907;76;822;-58
2021/04/12 02:10:01;;;;;;;;;;;23.30;42.40;;;;;;1540243;76;1189;-60
2021/04/12 02:12:10;;;;;;;;;;;23.30;42.40;;;;;;1545757;76;1913;-60
2021/04/12 02:14:14;;;;;;;;;;;23.30;42.40;;;;;;1539066;76;723;-59
2021/04/12 02:16:17;;;;;;;;;;;23.20;42.20;;;;;;1544889;76;2012;-60
2021/04/12 02:18:27;;;;;;;;;;;23.30;42.30;;;;;;1545836;75;1139;-59
2021/04/12 02:20:42;;;;;;;;;;;23.40;42.30;;;;;;1536717;76;762;-60
2021/04/12 02:23:03;;;;;;;;;;;23.30;42.30;;;;;;1544839;76;1919;-56
2021/04/12 02:25:06;;;;;;;;;;;23.30;42.40;;;;;;1539874;76;764;-59
2021/04/12 02:27:15;;;;;;;;;;;23.30;42.40;;;;;;1538370;76;766;-61
2021/04/12 02:29:22;;;;;;;;;;;23.20;42.30;;;;;;1546471;76;1133;-59
2021/04/12 02:31:40;;;;;;;;;;;23.20;42.30;;;;;;1544475;76;1947;-60
2021/04/12 02:33:43;;;;;;;;;;;23.20;42.30;;;;;;1544856;76;872;-61
2021/04/12 02:36:03;;;;;;;;;;;23.40;42.40;;;;;;1535312;76;729;-60
2021/04/12 02:38:18;;;;;;;;;;;23.20;42.40;;;;;;1540164;76;763;-61
2021/04/12 02:40:22;;;;;;;;;;;23.30;42.60;;;;;;1538795;76;2169;-59
2021/04/12 02:42:25;;;;;;;;;;;23.20;42.50;;;;;;1539557;76;1305;-59
2021/04/12 02:44:32;;;;;;;;;;;23.20;42.70;;;;;;1531872;76;1665;-57
2021/04/12 02:46:53;;;;;;;;;;;23.20;42.60;;;;;;1539696;76;785;-57
2021/04/12 02:49:00;;;;;;;;;;;23.20;42.70;;;;;;1545453;76;1162;-61
2021/04/12 02:51:06;;;;;;;;;;;23.10;42.90;;;;;;1541300;76;1939;-58
2021/04/12 02:53:26;;;;;;;;;;;23.10;43.00;;;;;;1542326;76;1550;-58
2021/04/12 02:55:35;;;;;;;;;;;23.10;43.10;;;;;;1541953;76;802;-57
2021/04/12 02:57:56;;;;;;;;;;;23.00;43.00;;;;;;1543387;76;779;-57
2021/04/12 03:00:15;;;;;;;;;;;23.00;43.20;;;;;;1542440;76;1146;-60
2021/04/12 03:02:25;;;;;;;;;;;22.90;43.20;;;;;;1547268;76;918;-61
2021/04/12 03:04:28;;;;;;;;;;;22.90;43.40;;;;;;1544896;76;791;-59
2021/04/12 03:06:41;;;;;;;;;;;22.90;43.50;;;;;;1536133;76;740;-60
2021/04/12 03:08:44;;;;;;;;;;;22.90;43.50;;;;;;1545874;76;1154;-58
2021/04/12 03:11:00;;;;;;;;;;;22.80;43.50;;;;;;1537204;76;2099;-58
2021/04/12 03:13:20;;;;;;;;;;;22.90;43.60;;;;;;1539255;76;799;-59
2021/04/12 03:15:36;;;;;;;;;;;22.90;43.80;;;;;;1545205;76;893;-60
2021/04/12 03:17:42;;;;;;;;;;;22.80;43.50;;;;;;1538900;76;843;-59
2021/04/12 03:19:52;;;;;;;;;;;22.80;43.60;;;;;;1538695;76;1153;-60
2021/04/12 03:22:10;;;;;;;;;;;22.80;43.80;;;;;;1540522;76;728;-58
2021/04/12 03:24:20;;;;;;;;;;;22.90;43.70;;;;;;1540724;76;1866;-57
2021/04/12 03:26:27;;;;;;;;;;;22.90;43.60;;;;;;1531569;76;765;-59
2021/04/12 03:28:30;;;;;;;;;;;22.90;43.60;;;;;;1535955;76;1981;-60
2021/04/12 03:30:46;;;;;;;;;;;22.90;43.60;;;;;;1551047;76;777;-58
2021/04/12 03:32:58;;;;;;;;;;;22.90;43.50;;;;;;1537402;76;1928;-61
2021/04/12 03:35:16;;;;;;;;;;;22.90;43.60;;;;;;1544462;76;802;-60
2021/04/12 03:37:20;;;;;;;;;;;22.90;43.50;;;;;;1543361;76;809;-56
2021/04/12 03:39:29;;;;;;;;;;;22.90;43.50;;;;;;1539911;76;1134;-59
2021/04/12 03:41:39;;;;;;;;;;;22.90;43.50;;;;;;1532606;76;1674;-59
2021/04/12 03:44:00;;;;;;;;;;;22.90;43.40;;;;;;1545123;76;715;-61
2021/04/12 03:46:20;;;;;;;;;;;22.90;43.60;;;;;;1545221;76;1484;-61
2021/04/12 03:48:27;;;;;;;;;;;22.90;43.60;;;;;;1539375;76;1137;-59
2021/04/12 03:50:42;;;;;;;;;;;22.90;43.60;;;;;;1547017;76;712;-61
2021/04/12 03:52:55;;;;;;;;;;;22.90;43.60;;;;;;1545460;76;1946;-61
2021/04/12 03:55:01;;;;;;;;;;;22.90;43.60;;;;;;1544988;76;770;-61
2021/04/12 03:57:14;;;;;;;;;;;22.90;43.50;;;;;;1547132;76;811;-62
2021/04/12 03:59:17;;;;;;;;;;;22.90;43.80;;;;;;1550541;76;1171;-58
2021/04/12 04:01:23;;;;;;;;;;;22.90;43.80;;;;;;1539596;76;759;-59
2021/04/12 04:03:30;;;;;;;;;;;22.90;43.90;;;;;;1549952;76;1922;-58
2021/04/12 04:05:36;;;;;;;;;;;22.90;43.80;;;;;;1546837;76;1553;-58
2021/04/12 04:07:54;;;;;;;;;;;22.90;43.70;;;;;;1547132;76;2054;-59
2021/04/12 04:10:04;;;;;;;;;;;22.90;43.80;;;;;;1586305;73;218780;-62
2021/04/12 04:12:10;;;;;;;;;;;22.90;43.80;;;;;;1582765;73;1934;-64
2021/04/12 04:14:14;;;;;;;;;;;22.90;43.80;;;;;;1582592;73;701;-65
2021/04/12 04:16:35;;;;;;;;;;;22.90;43.70;;;;;;1592190;73;736;-65
2021/04/12 04:18:38;;;;;;;;;;;22.90;43.60;;;;;;1588056;73;1190;-64
2021/04/12 04:20:55;;;;;;;;;;;22.90;43.50;;;;;;1576633;73;783;-65
2021/04/12 04:23:07;;;;;;;;;;;23.00;43.60;;;;;;1569751;73;873;-65
2021/04/12 04:25:17;;;;;;;;;;;23.00;43.50;;;;;;1588911;73;2060;-64
2021/04/12 04:27:37;;;;;;;;;;;23.00;43.40;;;;;;1582757;73;722;-64
2021/04/12 04:29:52;;;;;;;;;;;23.00;43.30;;;;;;1582030;73;1100;-65
2021/04/12 04:32:08;;;;;;;;;;;23.00;43.20;;;;;;1574169;73;1946;-65
2021/04/12 04:34:24;;;;;;;;;;;23.00;43.30;;;;;;1586694;73;1809;-64
2021/04/12 04:36:44;;;;;;;;;;;23.00;43.30;;;;;;1590675;73;744;-64
2021/04/12 04:39:06;;;;;;;;;;;23.00;43.20;;;;;;1590740;73;1084;-64
2021/04/12 04:41:27;;;;;;;;;;;23.00;43.10;;;;;;1585046;73;692;-64
2021/04/12 04:43:34;;;;;;;;;;;23.10;43.10;;;;;;1569756;73;683;-65
2021/04/12 04:45:49;;;;;;;;;;;23.10;43.10;;;;;;1583364;73;1491;-65
2021/04/12 04:48:10;;;;;;;;;;;23.10;43.00;;;;;;1580337;73;897;-65
2021/04/12 04:50:31;;;;;;;;;;;23.10;43.10;;;;;;1587948;73;802;-66
2021/04/12 04:52:41;;;;;;;;;;;23.10;43.10;;;;;;1581432;73;1996;-66
2021/04/12 04:55:00;;;;;;;;;;;23.10;43.10;;;;;;1581967;73;1655;-65
2021/04/12 04:57:20;;;;;;;;;;;23.20;43.00;;;;;;1568665;73;699;-64
2021/04/12 04:59:32;;;;;;;;;;;23.20;43.10;;;;;;1576079;73;1209;-64
2021/04/12 05:01:42;;;;;;;;;;;23.10;43.30;;;;;;1589793;73;845;-66
2021/04/12 05:04:01;;;;;;;;;;;23.10;43.40;;;;;;1595262;73;915;-65
2021/04/12 05:06:21;;;;;;;;;;;23.10;43.40;;;;;;1592369;73;792;-64
2021/04/12 05:08:25;;;;;;;;;;;23.10;43.30;;;;;;1570382;74;1083;-69
2021/04/12 05:10:44;;;;;;;;;;;23.20;43.20;;;;;;1570607;73;1712;-65
2021/04/12 05:12:54;;;;;;;;;;;23.20;43.20;;;;;;1591095;73;1939;-64
2021/04/12 05:15:01;;;;;;;;;;;23.10;43.30;;;;;;1582289;73;762;-65
2021/04/12 05:17:13;;;;;;;;;;;23.20;43.30;;;;;;1574814;73;795;-66
2021/04/12 05:19:17;;;;;;;;;;;23.10;43.10;;;;;;1585201;73;1136;-64
2021/04/12 05:21:36;;;;;;;;;;;23.20;42.90;;;;;;1587072;73;776;-67
2021/04/12 05:23:54;;;;;;;;;;;23.20;42.80;;;;;;1586062;73;2102;-65
2021/04/12 05:25:57;;;;;;;;;;;23.30;42.80;;;;;;1574078;73;776;-67
2021/04/12 05:28:10;;;;;;;;;;;23.30;42.80;;;;;;1589113;73;1126;-65
2021/04/12 05:30:25;;;;;;;;;;;23.10;42.90;;;;;;1523178;76;1242;-68
2021/04/12 05:32:40;;;;;;;;;;;23.20;42.90;;;;;;1586172;73;1923;-66
2021/04/12 05:34:57;;;;;;;;;;;23.10;43.10;;;;;;1582102;73;882;-65
2021/04/12 05:37:05;;;;;;;;;;;23.10;43.10;;;;;;1570182;73;698;-65
2021/04/12 05:39:12;;;;;;;;;;;23.10;43.10;;;;;;1565783;73;1142;-68
2021/04/12 05:41:15;;;;;;;;;;;23.20;43.40;;;;;;1576126;73;1657;-66
2021/04/12 05:43:19;;;;;;;;;;;23.10;43.40;;;;;;1564836;73;900;-66
2021/04/12 05:45:22;;;;;;;;;;;23.10;43.10;;;;;;1589026;73;1714;-66
2021/04/12 05:47:42;;;;;;;;;;;23.10;43.20;;;;;;1596045;73;736;-66
2021/04/12 05:49:48;;;;;;;;;;;23.10;43.10;;;;;;1582207;73;1104;-66
2021/04/12 05:51:58;;;;;;;;;;;23.10;43.20;;;;;;1581789;73;1981;-66
2021/04/12 05:54:02;;;;;;;;;;;23.00;43.10;;;;;;1586263;73;771;-67
2021/04/12 05:56:22;;;;;;;;;;;23.10;43.30;;;;;;1576327;73;801;-66
2021/04/12 05:58:28;;;;;;;;;;;23.20;43.40;;;;;;1582699;73;1200;-68
2021/04/12 06:00:31;;;;;;;;;;;23.10;43.30;;;;;;1543585;74;1061;-66
2021/04/12 06:02:51;;;;;;;;;;;23.20;43.40;;;;;;1579472;73;723;-66
2021/04/12 06:04:57;;;;;;;;;;;23.20;43.40;;;;;;1584323;73;741;-66
2021/04/12 06:07:04;;;;;;;;;;;23.20;43.40;;;;;;1576208;73;819;-66
2021/04/12 06:09:26;;;;;;;;;;;23.10;43.10;;;;;;1582375;73;1125;-68
2021/04/12 06:11:35;;;;;;;;;;;23.20;42.80;;;;;;1579017;73;757;-67
2021/04/12 06:13:41;;;;;;;;;;;23.10;42.90;;;;;;1574102;73;1930;-67
2021/04/12 06:15:45;;;;;;;;;;;23.10;43.10;;;;;;1584195;73;1947;-67
2021/04/12 06:17:48;;;;;;;;;;;23.20;42.70;;;;;;1590451;73;774;-68
2021/04/12 06:19:52;;;;;;;;;;;23.20;42.40;;;;;;1579310;73;1034;-69
2021/04/12 06:21:58;;;;;;;;;;;23.30;42.10;;;;;;1574974;73;806;-67
2021/04/12 06:24:02;;;;;;;;;;;23.40;41.80;;;;;;1581786;73;1880;-67
2021/04/12 06:26:20;;;;;;;;;;;23.40;41.50;;;;;;1595028;73;1490;-68
2021/04/12 06:28:41;;;;;;;;;;;23.40;41.40;;;;;;1572877;73;1102;-66
2021/04/12 06:30:45;;;;;;;;;;;23.40;41.20;;;;;;1579055;74;811;-67
2021/04/12 06:32:51;;;;;;;;;;;23.40;41.00;;;;;;1594635;73;1931;-68
2021/04/12 06:35:04;;;;;;;;;;;23.50;40.90;;;;;;1590542;73;723;-67
2021/04/12 06:37:24;;;;;;;;;;;23.50;40.70;;;;;;1582052;73;784;-69
2021/04/12 06:39:44;;;;;;;;;;;23.50;40.70;;;;;;1588146;73;1129;-68
2021/04/12 06:42:03;;;;;;;;;;;23.50;40.60;;;;;;1578838;73;737;-66
2021/04/12 06:44:23;;;;;;;;;;;23.40;40.40;;;;;;1601414;73;710;-67
2021/04/12 06:46:45;;;;;;;;;;;23.50;40.50;;;;;;1580192;73;711;-67
2021/04/12 06:48:51;;;;;;;;;;;23.40;40.30;;;;;;1578642;73;1864;-67
2021/04/12 06:51:13;;;;;;;;;;;23.40;40.20;;;;;;1587418;73;883;-68
2021/04/12 06:53:16;;;;;;;;;;;23.50;40.20;;;;;;1580117;73;1936;-71
2021/04/12 06:55:18;;;;;;;;;;;23.40;40.20;;;;;;1557108;73;1024;-68
2021/04/12 06:57:29;;;;;;;;;;;23.50;40.20;;;;;;1575048;73;735;-69
2021/04/12 06:59:44;;;;;;;;;;;23.50;40.20;;;;;;1587602;73;1166;-69
2021/04/12 07:02:04;;;;;;;;;;;23.40;40.10;;;;;;1576188;73;828;-65
2021/04/12 07:04:24;;;;;;;;;;;23.20;41.10;;;;;;1575966;73;745;-67
2021/04/12 07:06:37;;;;;;;;;;;23.20;42.10;;;;;;1576614;73;772;-68
2021/04/12 07:08:53;;;;;;;;;;;23.10;42.70;;;;;;1567270;73;1093;-66
2021/04/12 07:11:13;;;;;;;;;;;23.20;42.70;;;;;;1569285;73;1830;-68
2021/04/12 07:13:33;;;;;;;;;;;23.30;42.60;;;;;;1564646;74;1933;-68
2021/04/12 07:15:53;;;;;;;;;;;23.30;42.70;;;;;;1571755;73;792;-68
2021/04/12 07:18:14;;;;;;;;;;;23.30;42.70;;;;;;1578059;73;749;-66
2021/04/12 07:20:18;;;;;;;;;;;23.30;42.70;;;;;;1581801;73;1684;-67
2021/04/12 07:22:30;;;;;;;;;;;23.20;42.70;;;;;;1579824;73;777;-67
2021/04/12 07:24:48;;;;;;;;;;;23.20;42.70;;;;;;1575381;74;748;-67
2021/04/12 07:26:57;;;;;;;;;;;23.30;42.80;;;;;;1576109;73;1531;-65
2021/04/12 07:29:09;;;;;;;;;;;23.20;42.60;;;;;;1573512;73;1108;-65
2021/04/12 07:31:28;;;;;;;;;;;23.20;42.60;;;;;;1572383;73;764;-65
2021/04/12 07:33:49;;;;;;;;;;;23.20;42.60;;;;;;1569225;74;1943;-65
2021/04/12 07:36:09;;;;;;;;;;;23.30;42.60;;;;;;1591571;73;1742;-65
2021/04/12 07:38:13;;;;;;;;;;;23.30;42.40;;;;;;1564837;73;1126;-66
2021/04/12 07:40:31;;;;;;;;;;;23.30;42.50;;;;;;1573773;73;852;-65
2021/04/12 07:42:52;;;;;;;;;;;23.30;42.30;;;;;;1589418;73;773;-66
2021/04/12 07:44:55;;;;;;;;;;;23.30;42.30;;;;;;1569026;73;772;-66
2021/04/12 07:47:16;;;;;;;;;;;23.30;42.20;;;;;;1573916;73;741;-65
2021/04/12 07:49:36;;;;;;;;;;;23.30;42.10;;;;;;1577190;74;1123;-69
2021/04/12 07:51:40;;;;;;;;;;;23.30;42.20;;;;;;1581372;73;746;-68
2021/04/12 07:54:00;;;;;;;;;;;23.40;42.20;;;;;;1576978;73;1923;-68
2021/04/12 07:56:19;;;;;;;;;;;23.40;42.10;;;;;;1574929;73;781;-68
2021/04/12 07:58:39;;;;;;;;;;;23.40;42.10;;;;;;1571520;74;1184;-67
2021/04/12 08:00:45;;;;;;;;;;;23.40;42.10;;;;;;1585754;73;760;-67
2021/04/12 08:02:52;;;;;;;;;;;23.30;42.10;;;;;;1577236;73;708;-67
2021/04/12 08:05:11;;;;;;;;;;;23.40;42.10;;;;;;1578263;73;1858;-68
2021/04/12 08:07:31;;;;;;;;;;;23.30;42.00;;;;;;1573707;73;758;-68
2021/04/12 08:09:47;;;;;;;;;;;23.30;42.10;;;;;;1573740;73;1136;-68
2021/04/12 08:11:56;;;;;;;;;;;23.40;42.00;;;;;;1574715;73;770;-68
2021/04/12 08:14:15;;;;;;;;;;;23.40;42.00;;;;;;1583643;73;1947;-66
2021/04/12 08:16:19;;;;;;;;;;;23.40;42.10;;;;;;1579268;73;1884;-66
2021/04/12 08:18:28;;;;;;;;;;;23.20;42.10;;;;;;1578202;73;1173;-66
2021/04/12 08:20:50;;;;;;;;;;;23.20;42.00;;;;;;1576814;74;709;-66
2021/04/12 08:23:10;;;;;;;;;;;23.20;42.10;;;;;;1528781;77;1166;-66
2021/04/12 08:25:20;;;;;;;;;;;23.30;42.10;;;;;;1529206;77;889;-67
2021/04/12 08:27:26;;;;;;;;;;;23.30;42.00;;;;;;1512668;76;925;-66
2021/04/12 08:29:46;;;;;;;;;;;23.30;42.00;;;;;;1567835;74;1154;-66
2021/04/12 08:32:06;;;;;;;;;;;23.30;42.00;;;;;;1583458;73;775;-65
2021/04/12 08:34:26;;;;;;;;;;;23.20;41.80;;;;;;1584625;74;1922;-66
2021/04/12 08:36:46;;;;;;;;;;;23.20;41.80;;;;;;1586860;73;839;-65
2021/04/12 08:38:53;;;;;;;;;;;23.20;41.80;;;;;;1576364;73;1146;-67
2021/04/12 08:40:56;;;;;;;;;;;23.20;41.80;;;;;;1574613;73;757;-66
2021/04/12 08:43:03;;;;;;;;;;;23.20;41.80;;;;;;1559424;75;694;-66
2021/04/12 08:45:10;;;;;;;;;;;23.30;41.80;;;;;;1585155;73;1491;-66
2021/04/12 08:47:20;;;;;;;;;;;23.30;41.80;;;;;;1585306;73;740;-66
2021/04/12 08:49:26;;;;;;;;;;;23.30;41.80;;;;;;1582269;73;1859;-66
2021/04/12 08:51:30;;;;;;;;;;;23.30;41.60;;;;;;1578797;73;754;-66
2021/04/12 08:53:33;;;;;;;;;;;23.40;41.50;;;;;;1575070;73;1926;-66
2021/04/12 08:55:54;;;;;;;;;;;23.40;41.30;;;;;;1590233;73;806;-66
2021/04/12 08:58:14;;;;;;;;;;;23.40;41.30;;;;;;1577974;73;1116;-66
2021/04/12 09:00:36;;;;;;;;;;;23.30;41.30;;;;;;1578659;73;759;-65
2021/04/12 09:02:52;;;;;;;;;;;23.40;41.20;;;;;;1576526;73;834;-66
2021/04/12 09:05:04;;;;;;;;;;;23.40;41.20;;;;;;1583455;73;697;-66
2021/04/12 09:07:23;;;;;;;;;;;23.40;41.20;;;;;;1580094;73;720;-66
2021/04/12 09:09:43;;;;;;;;;;;23.40;41.10;;;;;;1571157;73;1200;-65
2021/04/12 09:11:47;;;;;;;;;;;23.40;41.10;;;;;;1571502;73;745;-64
2021/04/12 09:13:57;;;;;;;;;;;23.40;41.20;;;;;;1562056;73;1952;-66
2021/04/12 09:16:00;;;;;;;;;;;23.40;41.10;;;;;;1564023;73;710;-66
2021/04/12 09:18:07;;;;;;;;;;;23.30;41.10;;;;;;1560586;74;1157;-66
2021/04/12 09:20:25;;;;;;;;;;;23.30;41.10;;;;;;1563243;73;1495;-62
2021/04/12 09:22:48;;;;;;;;;;;23.30;41.30;;;;;;1568288;73;1923;-62
2021/04/12 09:25:07;;;;;;;;;;;23.30;41.20;;;;;;1562832;73;2270;-64
2021/04/12 09:27:13;;;;;;;;;;;23.30;41.10;;;;;;1563194;73;794;-63
2021/04/12 09:29:20;;;;;;;;;;;23.40;41.00;;;;;;1566568;73;1139;-63
2021/04/12 09:31:41;;;;;;;;;;;23.40;41.00;;;;;;1566974;74;829;-64
2021/04/12 09:34:01;;;;;;;;;;;23.50;41.00;;;;;;1571593;73;1898;-64
2021/04/12 09:36:08;;;;;;;;;;;23.50;41.00;;;;;;1586216;73;735;-64
2021/04/12 09:38:28;;;;;;;;;;;23.40;40.70;;;;;;1573320;74;1428;-64
2021/04/12 09:40:31;;;;;;;;;;;23.50;40.90;;;;;;1578313;74;753;-64
2021/04/12 09:42:51;;;;;;;;;;;23.40;40.80;;;;;;1568648;74;1908;-64
2021/04/12 09:45:04;;;;;;;;;;;23.50;40.90;;;;;;1577958;74;808;-63
2021/04/12 09:47:11;;;;;;;;;;;23.50;40.90;;;;;;1589421;74;781;-65
2021/04/12 09:49:29;;;;;;;;;;;23.50;41.00;;;;;;1571383;73;1127;-65
2021/04/12 09:51:39;;;;;;;;;;;23.50;40.90;;;;;;1580522;73;889;-66
2021/04/12 09:53:59;;;;;;;;;;;23.50;40.90;;;;;;1576228;73;1939;-63
2021/04/12 09:56:06;;;;;;;;;;;23.50;40.90;;;;;;1576057;73;1057;-63
2021/04/12 09:58:18;;;;;;;;;;;23.50;40.80;;;;;;1577000;73;1206;-63
2021/04/12 10:00:22;;;;;;;;;;;23.50;40.90;;;;;;1568760;74;792;-63
2021/04/12 10:02:31;;;;;;;;;;;23.50;40.80;;;;;;1563795;73;746;-62
2021/04/12 10:04:35;;;;;;;;;;;23.50;41.00;;;;;;1591629;73;750;-64
2021/04/12 10:06:38;;;;;;;;;;;23.50;40.90;;;;;;1574655;73;1587;-63
2021/04/12 10:08:56;;;;;;;;;;;23.50;40.90;;;;;;1566089;73;221631;-68
2021/04/12 10:11:00;;;;;;;;;;;23.50;40.90;;;;;;1551650;75;1867;-68
2021/04/12 10:13:21;;;;;;;;;;;23.50;40.90;;;;;;1556748;74;1916;-69
2021/04/12 10:15:41;;;;;;;;;;;23.40;41.00;;;;;;1554566;75;745;-68
2021/04/12 10:17:48;;;;;;;;;;;23.40;41.20;;;;;;1549344;75;741;-70
2021/04/12 10:19:52;;;;;;;;;;;23.30;41.40;;;;;;1559890;75;1189;-69
2021/04/12 10:22:02;;;;;;;;;;;23.40;41.30;;;;;;1558782;75;768;-69
2021/04/12 10:24:28;;;;;;;;;;;23.30;41.40;;;;;;1555502;74;683;-69
2021/04/12 10:26:32;;;;;;;;;;;23.30;41.50;;;;;;1562671;75;723;-68
2021/04/12 10:28:35;;;;;;;;;;;23.40;41.50;;;;;;1558848;74;1598;-66
2021/04/12 10:30:39;;;;;;;;;;;23.40;41.60;;;;;;1570480;75;794;-71
2021/04/12 10:32:43;;;;;;;;;;;23.30;41.70;;;;;;1568160;75;676;-67
2021/04/12 10:34:49;;;;;;;;;;;23.20;41.80;;;;;;1549104;75;1927;-66
2021/04/12 10:36:56;;;;;;;;;;;23.20;41.90;;;;;;1556334;75;846;-67
2021/04/12 10:39:08;;;;;;;;;;;23.10;41.90;;;;;;1564928;74;1101;-67
2021/04/12 10:41:23;;;;;;;;;;;23.10;42.10;;;;;;1559458;74;833;-67
2021/04/12 10:43:38;;;;;;;;;;;23.10;41.80;;;;;;1554606;75;1666;-69
2021/04/12 10:45:44;;;;;;;;;;;23.10;41.80;;;;;;1551522;75;973;-69
2021/04/12 10:47:48;;;;;;;;;;;23.10;41.70;;;;;;1545639;74;1693;-67
2021/04/12 10:49:51;;;;;;;;;;;23.10;41.60;;;;;;1553558;75;2284;-67
2021/04/12 10:51:58;;;;;;;;;;;23.10;41.80;;;;;;1552437;75;703;-69
2021/04/12 10:54:07;;;;;;;;;;;23.10;41.60;;;;;;1552655;75;1930;-67
2021/04/12 10:56:17;;;;;;;;;;;23.10;41.60;;;;;;1553931;75;642;-67
2021/04/12 10:58:24;;;;;;;;;;;23.10;41.50;;;;;;1563025;74;1140;-69
2021/04/12 11:00:27;;;;;;;;;;;23.10;41.40;;;;;;1561782;75;757;-70
2021/04/12 11:02:43;;;;;;;;;;;23.20;41.30;;;;;;1562892;75;954;-67
2021/04/12 11:04:55;;;;;;;;;;;23.30;41.30;;;;;;1562565;75;751;-67
2021/04/12 11:07:08;;;;;;;;;;;23.30;41.10;;;;;;1569305;74;1088;-67
2021/04/12 11:09:28;;;;;;;;;;;23.30;41.00;;;;;;1562813;74;1185;-67
2021/04/12 11:11:34;;;;;;;;;;;23.30;41.00;;;;;;1561206;75;695;-67
2021/04/12 11:13:56;;;;;;;;;;;23.40;40.80;;;;;;1563888;75;1973;-70
2021/04/12 11:16:05;;;;;;;;;;;23.50;41.00;;;;;;1551947;75;746;-67
2021/04/12 11:18:21;;;;;;;;;;;23.40;40.70;;;;;;1553043;75;740;-67
2021/04/12 11:20:33;;;;;;;;;;;23.40;40.60;;;;;;1554493;75;924;-67
2021/04/12 11:22:46;;;;;;;;;;;23.40;40.60;;;;;;1562888;75;724;-67
2021/04/12 11:24:50;;;;;;;;;;;23.40;40.60;;;;;;1558377;75;760;-67
2021/04/12 11:27:06;;;;;;;;;;;23.40;40.60;;;;;;1548767;75;1990;-67
2021/04/12 11:29:09;;;;;;;;;;;23.40;40.60;;;;;;1561873;74;1086;-68
2021/04/12 11:31:22;;;;;;;;;;;23.30;40.70;;;;;;1561153;74;1861;-69
2021/04/12 11:33:34;;;;;;;;;;;23.30;40.90;;;;;;1564483;75;1932;-67
2021/04/12 11:35:54;;;;;;;;;;;23.30;40.90;;;;;;1559244;75;744;-66
2021/04/12 11:37:58;;;;;;;;;;;23.20;40.80;;;;;;1559181;75;958;-70
2021/04/12 11:40:01;;;;;;;;;;;23.30;40.90;;;;;;1551148;74;1888;-70
2021/04/12 11:42:14;;;;;;;;;;;23.30;40.80;;;;;;1560335;75;1096;-67
2021/04/12 11:44:17;;;;;;;;;;;23.20;40.70;;;;;;1556867;75;2185;-68
2021/04/12 11:46:36;;;;;;;;;;;23.30;40.70;;;;;;1555580;75;1876;-67
2021/04/12 11:48:43;;;;;;;;;;;23.30;40.60;;;;;;1563430;74;1193;-67
2021/04/12 11:51:01;;;;;;;;;;;23.30;40.60;;;;;;1563217;75;754;-70
2021/04/12 11:53:11;;;;;;;;;;;23.40;40.40;;;;;;1558933;75;752;-66
2021/04/12 11:55:20;;;;;;;;;;;23.30;40.50;;;;;;1506086;74;1962;-70
2021/04/12 11:57:23;;;;;;;;;;;23.30;40.30;;;;;;1560472;75;747;-69
2021/04/12 11:59:45;;;;;;;;;;;23.30;40.30;;;;;;1567078;75;1858;-69
2021/04/12 12:01:52;;;;;;;;;;;23.40;40.20;;;;;;1563188;74;683;-68
2021/04/12 12:04:10;;;;;;;;;;;23.40;40.30;;;;;;1554867;75;855;-74
2021/04/12 12:06:14;;;;;;;;;;;23.30;40.40;;;;;;1448472;80;1137;-69
2021/04/12 12:08:22;;;;;;;;;;;23.20;40.60;;;;;;1497409;75;1177;-67
2021/04/12 12:10:43;;;;;;;;;;;23.30;40.90;;;;;;1550708;75;821;-69
2021/04/12 12:13:02;;;;;;;;;;;23.30;41.30;;;;;;1565000;75;724;-70
2021/04/12 12:15:17;;;;;;;;;;;23.30;41.70;;;;;;1567797;74;1936;-69
2021/04/12 12:17:20;;;;;;;;;;;23.20;42.00;;;;;;1532431;76;1197;-70
2021/04/12 12:19:42;;;;;;;;;;;23.20;42.30;;;;;;1567190;75;1149;-70
2021/04/12 12:21:48;;;;;;;;;;;23.40;42.60;;;;;;1559810;75;1519;-68
2021/04/12 12:23:58;;;;;;;;;;;23.20;42.60;;;;;;1555642;75;1835;-69
2021/04/12 12:26:00;;;;;;;;;;;23.20;42.80;;;;;;1556019;75;861;-69
2021/04/12 12:28:13;;;;;;;;;;;23.20;43.10;;;;;;1555988;75;682;-68
2021/04/12 12:30:16;;;;;;;;;;;23.20;43.20;;;;;;1559509;75;1888;-69
2021/04/12 12:32:23;;;;;;;;;;;23.20;43.40;;;;;;1570144;75;2336;-68
2021/04/12 12:34:28;;;;;;;;;;;23.20;43.60;;;;;;1557631;75;1946;-69
2021/04/12 12:36:31;;;;;;;;;;;23.20;43.60;;;;;;1568560;75;841;-68
2021/04/12 12:38:35;;;;;;;;;;;23.20;43.60;;;;;;1564847;75;1810;-70
2021/04/12 12:40:43;;;;;;;;;;;23.20;43.70;;;;;;1568709;75;789;-68
2021/04/12 12:42:48;;;;;;;;;;;23.20;43.90;;;;;;1567539;75;715;-68
2021/04/12 12:44:50;;;;;;;;;;;23.20;44.10;;;;;;1564878;75;1829;-68
2021/04/12 12:46:52;;;;;;;;;;;23.20;44.00;;;;;;1560228;74;765;-70
2021/04/12 12:48:55;;;;;;;;;;;23.10;44.10;;;;;;1529060;76;1160;-68
2021/04/12 12:51:04;;;;;;;;;;;23.10;44.20;;;;;;1558425;75;1006;-67
2021/04/12 12:53:07;;;;;;;;;;;23.20;44.30;;;;;;1571407;75;1842;-68
2021/04/12 12:55:13;;;;;;;;;;;23.20;44.40;;;;;;1564089;75;1989;-68
2021/04/12 12:57:17;;;;;;;;;;;23.20;44.40;;;;;;1552506;75;804;-68
2021/04/12 12:59:25;;;;;;;;;;;23.20;44.60;;;;;;1567677;74;1200;-69